Weather at South Barnbeth Farm Airstrip

Public forecast

Using degrees Celsius for public forecast. Weather courtesy of forecast.io.

Closest aviation weather report (METAR) to South Barnbeth Farm Airstrip

Closest report is Glasgow International Airport, 6.3 nm (11.7 km) ENE.

2024/05/22 23:20 (retrieved 12 minutes ago)

EGPF 222320Z AUTO 29009KT 7000 -RA SCT013/// BKN021/// OVC030/// //////TCU 12/11 Q1006

Closest aviation forecast (TAF) to South Barnbeth Farm Airstrip

Closest forecast is Glasgow International Airport, 6.3 nm (11.7 km) ENE.

2024/05/22 18:00 (retrieved 6 hours ago)

TAF EGPF 221659Z 2218/2318 31009KT 9999 SCT025 TEMPO 2218/2224 6000 RA PROB40 TEMPO 2218/2224 3000 +RA BKN008 PROB30 TEMPO 2218/2221 33015G25KT PROB40 TEMPO 2300/2315 7000 -RA BKN014 TEMPO 2315/2318 4000 RADZ BKN014